createdAt,value
2024-01-05T00:01:40.425Z,100.00
2024-01-05T00:04:07.250Z,100.00
2024-01-05T00:06:39.079Z,100.00
2024-01-05T00:09:07.326Z,100.00
2024-01-05T00:11:34.138Z,100.00
2024-01-05T00:14:00.878Z,100.00
2024-01-05T00:16:27.606Z,100.00
2024-01-05T00:18:54.439Z,100.00
2024-01-05T00:21:26.493Z,100.00
2024-01-05T00:23:56.733Z,100.00
2024-01-05T00:26:23.729Z,100.00
2024-01-05T00:28:54.585Z,100.00
2024-01-05T00:31:21.457Z,100.00
2024-01-05T00:33:48.419Z,100.00
2024-01-05T00:36:15.400Z,100.00
2024-01-05T00:38:48.458Z,100.00
2024-01-05T00:41:15.594Z,100.00
2024-01-05T00:43:43.505Z,100.00
2024-01-05T00:46:10.709Z,100.00
2024-01-05T00:48:38.028Z,100.00
2024-01-05T00:51:05.133Z,100.00
2024-01-05T00:53:31.875Z,100.00
2024-01-05T00:55:58.556Z,100.00
2024-01-05T00:58:25.273Z,100.00
2024-01-05T01:00:52.103Z,100.00
2024-01-05T01:03:18.986Z,100.00
2024-01-05T01:05:46.783Z,100.00
2024-01-05T01:08:16.313Z,100.00
2024-01-05T01:10:43.041Z,100.00
2024-01-05T01:13:11.486Z,100.00
2024-01-05T01:15:38.227Z,100.00
2024-01-05T01:18:05.668Z,100.00
2024-01-05T01:20:32.546Z,100.00
2024-01-05T01:22:59.230Z,100.00
2024-01-05T01:25:25.996Z,100.00
2024-01-05T01:27:52.709Z,100.00
2024-01-05T01:30:19.556Z,100.00
2024-01-05T01:32:46.420Z,100.00
2024-01-05T01:35:13.128Z,100.00
2024-01-05T01:37:39.893Z,100.00
2024-01-05T01:40:07.381Z,100.00
2024-01-05T01:42:34.353Z,100.00
2024-01-05T01:45:01.753Z,100.00
2024-01-05T01:47:29.632Z,100.00
2024-01-05T01:49:58.117Z,100.00
2024-01-05T01:52:25.817Z,100.00
2024-01-05T01:54:52.782Z,100.00
2024-01-05T01:57:20.223Z,100.00
2024-01-05T01:59:47.597Z,100.00
2024-01-05T02:02:14.987Z,100.00
2024-01-05T02:04:42.767Z,100.00
2024-01-05T02:07:09.829Z,100.00
2024-01-05T02:09:36.738Z,100.00
2024-01-05T02:12:03.920Z,100.00
2024-01-05T02:14:30.791Z,100.00
2024-01-05T02:16:57.569Z,100.00
2024-01-05T02:19:25.719Z,100.00
2024-01-05T02:21:56.174Z,100.00
2024-01-05T02:24:23.107Z,100.00
2024-01-05T02:26:50.442Z,100.00
2024-01-05T02:29:23.469Z,100.00
2024-01-05T02:31:51.862Z,100.00
2024-01-05T02:34:18.887Z,100.00
2024-01-05T02:36:45.965Z,100.00
2024-01-05T02:39:13.753Z,100.00
2024-01-05T02:41:40.529Z,100.00
2024-01-05T02:44:07.228Z,100.00
2024-01-05T02:46:36.607Z,100.00
2024-01-05T02:49:03.624Z,100.00
2024-01-05T02:51:30.657Z,100.00
2024-01-05T02:53:57.619Z,100.00
2024-01-05T02:56:24.534Z,100.00
2024-01-05T02:58:54.631Z,100.00
2024-01-05T03:01:21.513Z,100.00
2024-01-05T03:03:51.558Z,100.00
2024-01-05T03:06:20.409Z,100.00
2024-01-05T03:08:47.760Z,100.00
2024-01-05T03:11:14.599Z,100.00
2024-01-05T03:13:41.556Z,100.00
2024-01-05T03:16:08.814Z,100.00
2024-01-05T03:18:35.675Z,100.00
2024-01-05T03:21:02.777Z,100.00
2024-01-05T03:23:29.549Z,100.00
2024-01-05T03:25:58.153Z,100.00
2024-01-05T03:28:25.769Z,100.00
2024-01-05T03:30:53.365Z,100.00
2024-01-05T03:33:23.104Z,100.00
2024-01-05T03:35:49.937Z,100.00
2024-01-05T03:38:16.664Z,100.00
2024-01-05T03:40:43.670Z,100.00
2024-01-05T03:43:10.545Z,100.00
2024-01-05T03:45:37.849Z,100.00
2024-01-05T03:48:05.585Z,100.00
2024-01-05T03:50:36.451Z,100.00
2024-01-05T03:53:03.995Z,100.00
2024-01-05T03:55:30.686Z,100.00
2024-01-05T03:57:57.381Z,100.00
2024-01-05T04:00:24.092Z,100.00
2024-01-05T04:02:50.868Z,100.00
2024-01-05T04:05:17.713Z,100.00
2024-01-05T04:07:45.505Z,100.00
2024-01-05T04:10:12.362Z,100.00
2024-01-05T04:12:39.208Z,100.00
2024-01-05T04:15:06.753Z,100.00
2024-01-05T04:17:33.501Z,100.00
2024-01-05T04:20:00.260Z,100.00
2024-01-05T04:22:32.362Z,100.00
2024-01-05T04:25:00.095Z,100.00
2024-01-05T04:27:26.843Z,100.00
2024-01-05T04:29:53.632Z,100.00
2024-01-05T04:32:20.376Z,100.00
2024-01-05T04:34:47.191Z,100.00
2024-01-05T04:37:15.324Z,100.00
2024-01-05T04:39:44.475Z,100.00
2024-01-05T04:42:16.025Z,100.00
2024-01-05T04:44:43.725Z,100.00
2024-01-05T04:47:10.427Z,100.00
2024-01-05T04:49:37.187Z,100.00
2024-01-05T04:52:04.132Z,100.00
2024-01-05T04:54:30.954Z,100.00
2024-01-05T04:56:59.796Z,100.00
2024-01-05T04:59:29.344Z,100.00
2024-01-05T05:01:56.087Z,100.00
2024-01-05T05:04:22.765Z,100.00
2024-01-05T05:06:49.484Z,100.00
2024-01-05T05:09:16.176Z,100.00
2024-01-05T05:11:43.152Z,100.00
2024-01-05T05:14:10.112Z,100.00
2024-01-05T05:16:36.875Z,100.00
2024-01-05T05:19:05.591Z,100.00
2024-01-05T05:21:33.235Z,100.00
2024-01-05T05:24:00.104Z,100.00
2024-01-05T05:26:26.981Z,100.00
2024-01-05T05:28:54.026Z,100.00
2024-01-05T05:31:20.887Z,100.00
2024-01-05T05:33:51.172Z,100.00
2024-01-05T05:36:18.268Z,100.00
2024-01-05T05:38:46.193Z,100.00
2024-01-05T05:41:13.456Z,100.00
2024-01-05T05:43:41.495Z,100.00
2024-01-05T05:46:08.256Z,100.00
2024-01-05T05:48:36.605Z,100.00
2024-01-05T05:51:05.525Z,100.00
2024-01-05T05:53:32.695Z,100.00
2024-01-05T05:55:59.389Z,100.00
2024-01-05T05:58:27.502Z,100.00
2024-01-05T06:00:54.358Z,100.00
2024-01-05T06:03:24.411Z,100.00
2024-01-05T06:05:51.458Z,100.00
2024-01-05T06:08:18.158Z,100.00
2024-01-05T06:10:44.998Z,100.00
2024-01-05T06:13:12.061Z,100.00
2024-01-05T06:15:38.978Z,100.00
2024-01-05T06:18:05.913Z,100.00
2024-01-05T06:20:32.743Z,100.00
2024-01-05T06:22:59.514Z,100.00
2024-01-05T06:25:26.332Z,100.00
2024-01-05T06:27:54.503Z,100.00
2024-01-05T06:30:21.430Z,100.00
2024-01-05T06:32:48.238Z,100.00
2024-01-05T06:35:15.049Z,100.00
2024-01-05T06:37:41.790Z,100.00
2024-01-05T06:40:09.300Z,100.00
2024-01-05T06:42:36.026Z,100.00
2024-01-05T06:45:02.933Z,100.00
2024-01-05T06:47:29.735Z,100.00
2024-01-05T06:49:56.750Z,100.00
2024-01-05T06:52:23.543Z,100.00
2024-01-05T06:54:50.260Z,100.00
2024-01-05T06:57:17.038Z,100.00
2024-01-05T06:59:43.719Z,100.00
2024-01-05T07:02:10.464Z,100.00
2024-01-05T07:04:39.757Z,100.00
2024-01-05T07:07:06.404Z,100.00
2024-01-05T07:09:33.300Z,100.00
2024-01-05T07:12:00.951Z,100.00
2024-01-05T07:14:29.013Z,100.00
2024-01-05T07:16:57.350Z,100.00
2024-01-05T07:19:24.260Z,100.00
2024-01-05T07:21:51.291Z,100.00
2024-01-05T07:24:20.024Z,100.00
2024-01-05T07:26:47.071Z,100.00
2024-01-05T07:29:13.810Z,100.00
2024-01-05T07:31:40.802Z,100.00
2024-01-05T07:34:08.592Z,100.00
2024-01-05T07:36:36.483Z,100.00
2024-01-05T07:39:04.671Z,100.00
2024-01-05T07:41:31.436Z,100.00
2024-01-05T07:43:58.576Z,100.00
2024-01-05T07:46:28.361Z,100.00
2024-01-05T07:48:56.102Z,100.00
2024-01-05T07:51:23.596Z,100.00
2024-01-05T07:53:50.459Z,94.45
2024-01-05T07:56:18.811Z,88.25
2024-01-05T07:58:46.103Z,97.60
2024-01-05T08:01:19.561Z,91.61
2024-01-05T08:03:47.193Z,81.00
2024-01-05T08:06:17.416Z,83.42
2024-01-05T08:08:48.839Z,76.63
2024-01-05T08:11:16.022Z,75.12
2024-01-05T08:13:44.057Z,70.85
2024-01-05T08:16:11.496Z,66.88
2024-01-05T08:18:40.625Z,68.28
2024-01-05T08:21:07.426Z,71.66
2024-01-05T08:23:34.874Z,69.49
2024-01-05T08:26:04.871Z,65.83
2024-01-05T08:28:31.870Z,67.62
2024-01-05T08:30:59.579Z,84.49
2024-01-05T08:33:26.770Z,83.43
2024-01-05T08:35:53.660Z,100.00
2024-01-05T08:38:20.481Z,87.97
2024-01-05T08:40:47.465Z,90.31
2024-01-05T08:43:14.244Z,100.00
2024-01-05T08:45:41.130Z,91.71
2024-01-05T08:48:08.067Z,90.33
2024-01-05T08:50:36.321Z,77.95
2024-01-05T08:53:03.377Z,64.59
2024-01-05T08:55:30.433Z,70.58
2024-01-05T08:57:58.492Z,70.70
2024-01-05T09:00:26.294Z,91.70
2024-01-05T09:02:53.376Z,92.00
2024-01-05T09:05:20.598Z,100.00
2024-01-05T09:07:48.978Z,100.00
2024-01-05T09:10:16.015Z,100.00
2024-01-05T09:12:42.988Z,97.43
2024-01-05T09:15:10.246Z,73.56
2024-01-05T09:17:39.146Z,76.24
2024-01-05T09:20:06.689Z,73.12
2024-01-05T09:22:35.792Z,66.36
2024-01-05T09:25:02.515Z,68.28
2024-01-05T09:27:29.575Z,66.59
2024-01-05T09:29:56.345Z,72.65
2024-01-05T09:32:23.717Z,100.00
2024-01-05T09:34:50.986Z,100.00
2024-01-05T09:37:17.794Z,100.00
2024-01-05T09:39:44.527Z,97.26
2024-01-05T09:42:11.582Z,100.00
2024-01-05T09:44:38.581Z,82.29
2024-01-05T09:47:05.858Z,67.36
2024-01-05T09:49:36.901Z,60.02
2024-01-05T09:52:04.123Z,55.45
2024-01-05T09:54:31.052Z,54.99
2024-01-05T09:56:58.023Z,51.37
2024-01-05T09:59:26.939Z,54.00
2024-01-05T10:01:55.221Z,53.86
2024-01-05T10:04:22.061Z,49.53
2024-01-05T10:06:59.983Z,48.45
2024-01-05T10:09:26.752Z,50.71
2024-01-05T10:11:53.482Z,53.94
2024-01-05T10:14:26.327Z,51.92
2024-01-05T10:17:08.723Z,50.75
2024-01-05T10:19:36.550Z,51.68
2024-01-05T10:22:16.066Z,54.22
2024-01-05T10:24:43.686Z,51.53
2024-01-05T10:27:12.856Z,49.10
2024-01-05T10:29:44.999Z,50.79
2024-01-05T10:32:21.876Z,50.62
2024-01-05T10:34:51.965Z,54.14
2024-01-05T10:37:21.223Z,52.01
2024-01-05T10:39:54.206Z,51.19
2024-01-05T10:42:30.903Z,51.71
2024-01-05T10:44:59.854Z,51.17
2024-01-05T10:47:28.458Z,54.06
2024-01-05T10:49:57.847Z,53.36
2024-01-05T10:52:32.591Z,54.99
2024-01-05T10:55:04.434Z,55.48
2024-01-05T10:57:33.255Z,53.07
2024-01-05T11:00:00.694Z,52.73
2024-01-05T11:03:05.662Z,52.89
2024-01-05T11:05:32.812Z,53.88
2024-01-05T11:08:02.234Z,52.60
2024-01-05T11:10:40.600Z,53.22
2024-01-05T11:13:48.879Z,50.28
2024-01-05T11:16:33.345Z,50.76
2024-01-05T11:19:00.254Z,49.56
2024-01-05T11:21:56.494Z,47.62
2024-01-05T11:24:25.263Z,43.74
2024-01-05T11:26:53.444Z,42.65
2024-01-05T11:29:52.654Z,44.58
2024-01-05T11:32:46.782Z,42.88
2024-01-05T11:35:22.472Z,43.40
2024-01-05T11:37:49.922Z,42.15
2024-01-05T11:40:37.312Z,43.39
2024-01-05T11:43:30.175Z,41.89
2024-01-05T11:45:57.347Z,41.29
2024-01-05T11:48:37.378Z,40.60
2024-01-05T11:51:08.373Z,43.92
2024-01-05T11:53:35.291Z,43.71
2024-01-05T11:56:04.628Z,38.56
2024-01-05T11:58:33.452Z,39.33
2024-01-05T12:01:01.516Z,42.54
2024-01-05T12:03:28.810Z,40.93
2024-01-05T12:06:01.932Z,40.20
2024-01-05T12:08:29.379Z,39.48
2024-01-05T12:11:04.145Z,42.27
2024-01-05T12:13:34.256Z,39.01
2024-01-05T12:16:03.926Z,39.59
2024-01-05T12:18:37.770Z,39.99
2024-01-05T12:21:07.961Z,36.93
2024-01-05T12:23:35.762Z,38.29
2024-01-05T12:26:04.972Z,37.66
2024-01-05T12:28:36.093Z,37.34
2024-01-05T12:31:04.588Z,40.29
2024-01-05T12:33:34.381Z,38.80
2024-01-05T12:36:01.192Z,39.19
2024-01-05T12:38:34.398Z,41.70
2024-01-05T12:41:18.719Z,39.93
2024-01-05T12:43:51.463Z,39.71
2024-01-05T12:46:20.195Z,39.67
2024-01-05T12:48:47.208Z,39.24
2024-01-05T12:51:21.704Z,39.71
2024-01-05T12:53:58.717Z,40.67
2024-01-05T12:56:27.966Z,38.65
2024-01-05T12:58:54.681Z,38.42
2024-01-05T13:01:23.675Z,40.35
2024-01-05T13:03:57.261Z,41.18
2024-01-05T13:06:27.150Z,38.37
2024-01-05T13:08:54.441Z,39.54
2024-01-05T13:11:22.238Z,39.25
2024-01-05T13:13:54.124Z,39.88
2024-01-05T13:16:21.489Z,42.94
2024-01-05T13:18:49.003Z,40.46
2024-01-05T13:21:16.496Z,40.83
2024-01-05T13:23:45.736Z,40.68
2024-01-05T13:26:12.627Z,41.12
2024-01-05T13:28:41.644Z,43.39
2024-01-05T13:31:08.878Z,42.52
2024-01-05T13:33:36.368Z,41.66
2024-01-05T13:36:03.615Z,44.53
2024-01-05T13:38:30.560Z,43.64
2024-01-05T13:40:57.540Z,44.34
2024-01-05T13:43:26.286Z,44.54
2024-01-05T13:45:55.807Z,46.37
2024-01-05T13:48:23.178Z,44.73
2024-01-05T13:50:50.666Z,43.57
2024-01-05T13:53:17.538Z,44.73
2024-01-05T13:55:44.513Z,46.31
2024-01-05T13:58:11.272Z,45.07
2024-01-05T14:00:38.149Z,45.63
2024-01-05T14:03:05.610Z,47.54
2024-01-05T14:05:32.660Z,46.81
2024-01-05T14:08:00.587Z,46.91
2024-01-05T14:10:28.176Z,45.64
2024-01-05T14:12:56.935Z,47.49
2024-01-05T14:15:26.143Z,48.59
2024-01-05T14:17:53.082Z,48.58
2024-01-05T14:20:20.264Z,49.20
2024-01-05T14:22:47.137Z,49.11
2024-01-05T14:25:14.015Z,49.87
2024-01-05T14:27:41.769Z,50.55
2024-01-05T14:30:09.666Z,50.88
2024-01-05T14:32:36.601Z,52.87
2024-01-05T14:35:06.865Z,52.07
2024-01-05T14:37:34.209Z,52.46
2024-01-05T14:40:01.076Z,53.20
2024-01-05T14:42:27.750Z,53.84
2024-01-05T14:44:55.152Z,53.21
2024-01-05T14:47:22.037Z,56.74
2024-01-05T14:49:49.475Z,56.83
2024-01-05T14:52:16.334Z,59.85
2024-01-05T14:54:43.582Z,63.22
2024-01-05T14:57:10.332Z,71.25
2024-01-05T14:59:37.796Z,72.59
2024-01-05T15:02:04.531Z,78.03
2024-01-05T15:04:32.874Z,85.45
2024-01-05T15:07:01.855Z,79.36
2024-01-05T15:09:28.984Z,84.30
2024-01-05T15:11:55.720Z,93.08
2024-01-05T15:14:22.523Z,95.66
2024-01-05T15:16:51.514Z,85.51
2024-01-05T15:19:19.632Z,100.00
2024-01-05T15:21:46.593Z,100.00
2024-01-05T15:24:13.726Z,100.00
2024-01-05T15:26:47.090Z,100.00
2024-01-05T15:29:15.069Z,100.00
2024-01-05T15:31:42.056Z,100.00
2024-01-05T15:34:09.181Z,100.00
2024-01-05T15:36:36.214Z,100.00
2024-01-05T15:39:03.414Z,100.00
2024-01-05T15:41:30.257Z,100.00
2024-01-05T15:43:58.688Z,100.00
2024-01-05T15:46:28.164Z,100.00
2024-01-05T15:48:56.515Z,100.00
2024-01-05T15:51:26.660Z,100.00
2024-01-05T15:53:56.024Z,100.00
2024-01-05T15:56:24.395Z,100.00
2024-01-05T15:58:53.477Z,100.00
2024-01-05T16:01:20.333Z,100.00
2024-01-05T16:03:48.616Z,100.00
2024-01-05T16:06:20.298Z,100.00
2024-01-05T16:08:49.589Z,100.00
2024-01-05T16:11:17.487Z,100.00
2024-01-05T16:13:44.710Z,100.00
2024-01-05T16:16:16.100Z,100.00
2024-01-05T16:18:45.604Z,100.00
2024-01-05T16:21:13.214Z,100.00
2024-01-05T16:23:41.259Z,100.00
2024-01-05T16:26:08.374Z,100.00
2024-01-05T16:28:35.129Z,100.00
2024-01-05T16:31:01.976Z,100.00
2024-01-05T16:33:31.037Z,100.00
2024-01-05T16:35:58.504Z,100.00
2024-01-05T16:38:25.321Z,100.00
2024-01-05T16:40:56.109Z,100.00
2024-01-05T16:43:22.890Z,100.00
2024-01-05T16:45:49.776Z,100.00
2024-01-05T16:48:17.633Z,100.00
2024-01-05T16:50:45.867Z,100.00
2024-01-05T16:53:12.793Z,100.00
2024-01-05T16:55:39.514Z,100.00
2024-01-05T16:58:09.120Z,100.00
2024-01-05T17:00:36.205Z,100.00
2024-01-05T17:03:04.688Z,100.00
2024-01-05T17:05:31.770Z,100.00
2024-01-05T17:07:58.609Z,100.00
2024-01-05T17:10:25.294Z,100.00
2024-01-05T17:12:52.830Z,100.00
2024-01-05T17:15:21.231Z,100.00
2024-01-05T17:17:48.471Z,100.00
2024-01-05T17:20:22.153Z,100.00
2024-01-05T17:22:52.689Z,100.00
2024-01-05T17:25:19.386Z,100.00
2024-01-05T17:27:47.172Z,100.00
2024-01-05T17:30:17.071Z,100.00
2024-01-05T17:32:48.714Z,100.00
2024-01-05T17:35:15.877Z,100.00
2024-01-05T17:37:42.666Z,100.00
2024-01-05T17:40:09.894Z,100.00
2024-01-05T17:42:36.626Z,100.00
2024-01-05T17:45:04.014Z,100.00
2024-01-05T17:47:31.582Z,100.00
2024-01-05T17:49:59.413Z,100.00
2024-01-05T17:52:27.235Z,100.00
2024-01-05T17:54:54.609Z,100.00
2024-01-05T17:57:25.242Z,100.00
2024-01-05T17:59:52.914Z,100.00
2024-01-05T18:02:20.036Z,100.00
2024-01-05T18:04:46.943Z,100.00
2024-01-05T18:07:18.474Z,100.00
2024-01-05T18:09:46.527Z,100.00
2024-01-05T18:12:13.411Z,100.00
2024-01-05T18:14:40.406Z,100.00
2024-01-05T18:17:07.398Z,100.00
2024-01-05T18:19:34.729Z,100.00
2024-01-05T18:22:02.232Z,100.00
2024-01-05T18:24:29.828Z,100.00
2024-01-05T18:26:56.939Z,100.00
2024-01-05T18:29:29.160Z,100.00
2024-01-05T18:31:58.265Z,100.00
2024-01-05T18:34:26.956Z,100.00
2024-01-05T18:36:54.400Z,100.00
2024-01-05T18:39:21.672Z,100.00
2024-01-05T18:41:48.723Z,100.00
2024-01-05T18:44:17.553Z,100.00
2024-01-05T18:46:46.394Z,100.00
2024-01-05T18:49:17.332Z,100.00
2024-01-05T18:51:44.088Z,100.00
2024-01-05T18:54:10.862Z,100.00
2024-01-05T18:56:39.415Z,100.00
2024-01-05T18:59:06.420Z,100.00
2024-01-05T19:01:33.436Z,100.00
2024-01-05T19:04:00.662Z,100.00
2024-01-05T19:06:28.284Z,100.00
2024-01-05T19:08:55.152Z,100.00
2024-01-05T19:11:22.337Z,100.00
2024-01-05T19:13:49.301Z,100.00
2024-01-05T19:16:20.999Z,100.00
2024-01-05T19:18:48.096Z,100.00
2024-01-05T19:21:15.852Z,100.00
2024-01-05T19:23:43.343Z,100.00
2024-01-05T19:26:14.368Z,100.00
2024-01-05T19:28:41.134Z,100.00
2024-01-05T19:31:08.405Z,100.00
2024-01-05T19:33:37.470Z,100.00
2024-01-05T19:36:13.942Z,100.00
2024-01-05T19:38:43.348Z,100.00
2024-01-05T19:41:13.173Z,100.00
2024-01-05T19:43:40.462Z,100.00
2024-01-05T19:46:08.543Z,100.00
2024-01-05T19:48:36.804Z,100.00
2024-01-05T19:51:04.966Z,100.00
2024-01-05T19:53:33.309Z,100.00
2024-01-05T19:56:01.225Z,100.00
2024-01-05T19:58:27.979Z,100.00
2024-01-05T20:00:55.329Z,100.00
2024-01-05T20:03:23.344Z,100.00
2024-01-05T20:05:52.318Z,100.00
2024-01-05T20:08:19.142Z,100.00
2024-01-05T20:10:45.914Z,100.00
2024-01-05T20:13:14.107Z,100.00
2024-01-05T20:15:42.197Z,100.00
2024-01-05T20:18:09.277Z,100.00
2024-01-05T20:20:36.544Z,100.00
2024-01-05T20:23:03.529Z,100.00
2024-01-05T20:25:31.599Z,100.00
2024-01-05T20:27:58.342Z,100.00
2024-01-05T20:30:27.743Z,100.00
2024-01-05T20:32:56.773Z,100.00
2024-01-05T20:35:23.475Z,100.00
2024-01-05T20:37:51.832Z,100.00
2024-01-05T20:40:19.345Z,100.00
2024-01-05T20:42:47.216Z,100.00
2024-01-05T20:45:14.907Z,100.00
2024-01-05T20:47:43.105Z,100.00
2024-01-05T20:50:10.595Z,100.00
2024-01-05T20:52:37.467Z,100.00
2024-01-05T20:55:04.439Z,100.00
2024-01-05T20:57:32.742Z,100.00
2024-01-05T21:00:00.615Z,100.00
2024-01-05T21:02:27.438Z,100.00
2024-01-05T21:04:54.569Z,100.00
2024-01-05T21:07:22.921Z,100.00
2024-01-05T21:09:49.971Z,100.00
2024-01-05T21:12:16.924Z,100.00
2024-01-05T21:14:44.205Z,100.00
2024-01-05T21:17:10.947Z,100.00
2024-01-05T21:19:41.360Z,100.00
2024-01-05T21:22:08.452Z,100.00
2024-01-05T21:24:42.830Z,100.00
2024-01-05T21:27:13.136Z,100.00
2024-01-05T21:29:42.918Z,100.00
2024-01-05T21:32:09.929Z,100.00
2024-01-05T21:34:41.648Z,100.00
2024-01-05T21:37:08.912Z,100.00
2024-01-05T21:39:36.132Z,100.00
2024-01-05T21:42:03.604Z,100.00
2024-01-05T21:44:30.311Z,100.00
2024-01-05T21:46:59.460Z,100.00
2024-01-05T21:49:27.039Z,100.00
2024-01-05T21:51:55.222Z,100.00
2024-01-05T21:54:22.545Z,100.00
2024-01-05T21:56:49.492Z,100.00
2024-01-05T21:59:16.271Z,100.00
2024-01-05T22:01:47.235Z,100.00
2024-01-05T22:04:14.644Z,100.00
2024-01-05T22:06:41.693Z,100.00
2024-01-05T22:09:12.592Z,100.00
2024-01-05T22:11:44.114Z,100.00
2024-01-05T22:14:14.614Z,100.00
2024-01-05T22:16:42.127Z,100.00
2024-01-05T22:19:11.624Z,100.00
2024-01-05T22:21:38.508Z,100.00
2024-01-05T22:24:05.884Z,100.00
2024-01-05T22:26:35.991Z,100.00
2024-01-05T22:29:06.784Z,100.00
2024-01-05T22:31:34.482Z,100.00
2024-01-05T22:34:01.645Z,100.00
2024-01-05T22:36:28.635Z,100.00
2024-01-05T22:38:55.434Z,100.00
2024-01-05T22:41:23.987Z,100.00
2024-01-05T22:43:53.094Z,100.00
2024-01-05T22:46:21.969Z,100.00
2024-01-05T22:48:49.006Z,100.00
2024-01-05T22:51:30.707Z,100.00
2024-01-05T22:53:57.556Z,100.00
2024-01-05T22:56:24.408Z,100.00
2024-01-05T22:58:51.567Z,100.00
2024-01-05T23:01:24.017Z,100.00
2024-01-05T23:03:54.842Z,100.00
2024-01-05T23:06:26.622Z,100.00
2024-01-05T23:08:55.887Z,100.00
2024-01-05T23:11:24.115Z,100.00
2024-01-05T23:13:50.886Z,100.00
2024-01-05T23:16:23.723Z,100.00
2024-01-05T23:18:50.570Z,100.00
2024-01-05T23:21:17.522Z,100.00
2024-01-05T23:23:44.272Z,100.00
2024-01-05T23:26:18.281Z,100.00
2024-01-05T23:28:45.326Z,100.00
2024-01-05T23:31:12.318Z,100.00
2024-01-05T23:33:39.235Z,100.00
2024-01-05T23:36:06.354Z,100.00
2024-01-05T23:38:33.385Z,100.00
2024-01-05T23:41:00.374Z,100.00
2024-01-05T23:43:27.743Z,100.00
2024-01-05T23:45:54.558Z,100.00
2024-01-05T23:48:21.480Z,100.00
2024-01-05T23:50:48.364Z,100.00
2024-01-05T23:53:15.053Z,100.00
2024-01-05T23:55:42.592Z,100.00
2024-01-05T23:58:10.242Z,100.00
